Time;durP1;ratioP1;P1;durP2;ratioP2;P2;SDS_P1;SDS_P2;PMS_P1;PMS_P2;Temp;Humidity;BMP_temperature;BMP_pressure;BME280_temperature;BME280_humidity;BME280_pressure;Samples;Min_cycle;Max_cycle;Signal;HPM_P1;HPM_P2
2023/03/03 00:01:55;;;;;;;49.42;12.15;;;1.60;94.40;;;;;;5074842;28;20065;-42
2023/03/03 00:04:23;;;;;;;61.70;14.80;;;1.50;94.40;;;;;;5055920;28;20040;-43
2023/03/03 00:06:51;;;;;;;20.35;11.45;;;1.50;94.50;;;;;;5063406;28;20039;-43
2023/03/03 00:09:22;;;;;;;40.08;12.10;;;1.40;94.40;;;;;;5057398;28;20035;-44
2023/03/03 00:11:57;;;;;;;22.35;10.82;;;1.40;94.40;;;;;;5074760;28;20025;-43
2023/03/03 00:14:31;;;;;;;24.88;12.02;;;1.40;94.40;;;;;;5031034;28;20036;-43
2023/03/03 00:17:10;;;;;;;34.45;11.20;;;1.40;94.30;;;;;;5036924;28;20061;-44
2023/03/03 00:19:41;;;;;;;19.67;8.95;;;1.30;94.20;;;;;;5038317;28;20036;-42
2023/03/03 00:22:21;;;;;;;16.00;8.80;;;1.20;94.20;;;;;;5045896;28;20405;-43
2023/03/03 00:24:48;;;;;;;20.40;7.97;;;1.20;94.20;;;;;;5037132;28;20485;-43
2023/03/03 00:27:34;;;;;;;16.58;7.78;;;1.10;94.10;;;;;;5053850;28;20072;-43
2023/03/03 00:30:02;;;;;;;19.70;8.38;;;1.00;94.10;;;;;;5037859;28;20630;-42
2023/03/03 00:32:52;;;;;;;15.35;7.85;;;1.00;94.10;;;;;;5053588;28;20037;-43
2023/03/03 00:35:48;;;;;;;16.23;8.65;;;0.90;94.00;;;;;;5038548;28;20037;-43
2023/03/03 00:38:17;;;;;;;16.88;8.95;;;0.90;94.10;;;;;;5054225;28;20126;-43
2023/03/03 00:40:46;;;;;;;18.67;8.90;;;0.90;94.00;;;;;;5036726;28;20037;-44
2023/03/03 00:43:36;;;;;;;19.60;9.03;;;0.90;94.00;;;;;;5053535;28;20072;-47
2023/03/03 00:46:03;;;;;;;14.48;7.88;;;0.90;94.00;;;;;;5053867;28;20044;-46
2023/03/03 00:48:47;;;;;;;15.05;7.38;;;0.80;94.00;;;;;;5058652;28;20090;-44
2023/03/03 00:51:30;;;;;;;18.75;9.15;;;0.70;93.90;;;;;;5073559;28;20034;-44
2023/03/03 00:53:57;;;;;;;14.32;7.63;;;0.70;93.80;;;;;;5060407;28;20481;-44
2023/03/03 00:56:27;;;;;;;17.50;7.32;;;0.70;93.90;;;;;;5036564;28;20051;-44
2023/03/03 00:58:53;;;;;;;12.23;6.65;;;0.60;93.80;;;;;;5062301;28;20028;-44
2023/03/03 01:01:19;;;;;;;14.02;6.47;;;0.50;93.70;;;;;;5073810;28;20033;-44
2023/03/03 01:03:55;;;;;;;15.98;7.32;;;0.50;93.60;;;;;;5078616;27;20445;-44
2023/03/03 01:06:23;;;;;;;12.45;6.75;;;0.40;93.70;;;;;;5089582;28;20032;-44
2023/03/03 01:08:50;;;;;;;11.30;7.28;;;0.40;93.70;;;;;;5051511;28;20055;-44
2023/03/03 01:11:21;;;;;;;19.55;6.53;;;0.40;93.70;;;;;;5067898;28;20037;-45
2023/03/03 01:13:50;;;;;;;11.93;6.60;;;0.40;93.70;;;;;;5074505;28;20026;-44
2023/03/03 01:16:16;;;;;;;12.38;6.40;;;0.40;93.70;;;;;;5065458;28;20064;-45
2023/03/03 01:18:43;;;;;;;14.13;7.28;;;0.40;93.70;;;;;;5042369;28;20128;-44
2023/03/03 01:21:12;;;;;;;11.40;6.25;;;0.30;93.60;;;;;;5069695;28;20032;-45
2023/03/03 01:23:39;;;;;;;11.65;6.25;;;0.30;93.70;;;;;;5068445;28;20036;-45
2023/03/03 01:26:09;;;;;;;10.65;6.80;;;0.20;93.70;;;;;;5050480;28;20780;-45
2023/03/03 01:28:37;;;;;;;10.52;6.53;;;0.20;93.70;;;;;;5051965;28;20037;-46
2023/03/03 01:31:08;;;;;;;10.50;5.90;;;0.30;93.80;;;;;;5067944;28;20024;-45
2023/03/03 01:33:35;;;;;;;10.88;6.63;;;0.30;93.80;;;;;;5049580;28;20477;-45
2023/03/03 01:36:02;;;;;;;10.43;5.80;;;0.30;93.80;;;;;;5087402;28;20111;-46
2023/03/03 01:38:28;;;;;;;12.05;6.43;;;0.30;93.80;;;;;;5056609;28;20037;-44
2023/03/03 01:40:57;;;;;;;12.70;6.97;;;0.30;93.70;;;;;;5061448;28;20155;-45
2023/03/03 01:43:35;;;;;;;13.80;7.63;;;0.30;93.60;;;;;;5051924;28;20037;-45
2023/03/03 01:46:06;;;;;;;10.90;6.20;;;0.20;93.60;;;;;;5049639;28;20030;-45
2023/03/03 01:48:41;;;;;;;12.52;6.95;;;0.30;93.70;;;;;;5049545;28;20091;-46
2023/03/03 01:51:40;;;;;;;12.38;6.88;;;0.20;93.60;;;;;;5067982;28;20041;-45
2023/03/03 01:54:16;;;;;;;12.18;6.53;;;0.20;93.70;;;;;;5048710;28;20039;-46
2023/03/03 01:56:43;;;;;;;10.43;5.95;;;0.20;93.50;;;;;;5048773;28;20067;-45
2023/03/03 01:59:17;;;;;;;12.27;7.68;;;0.20;93.50;;;;;;5051344;28;20514;-46
2023/03/03 02:01:45;;;;;;;11.07;6.32;;;0.20;93.50;;;;;;5031287;28;20037;-45
2023/03/03 02:04:14;;;;;;;9.77;6.15;;;0.00;93.40;;;;;;5065738;28;20037;-45
2023/03/03 02:06:46;;;;;;;11.95;7.00;;;0.00;93.40;;;;;;5067861;28;20036;-45
2023/03/03 02:09:27;;;;;;;11.40;6.88;;;0.00;93.40;;;;;;5050155;28;20457;-46
2023/03/03 02:11:57;;;;;;;11.57;7.38;;;0.00;93.40;;;;;;5071284;28;20072;-46
2023/03/03 02:14:25;;;;;;;;;;;0.00;93.40;;;;;;5076514;28;20086;-46
2023/03/03 02:16:52;;;;;;;9.85;5.70;;;0.00;93.40;;;;;;5051948;28;19954;-45
2023/03/03 02:19:57;;;;;;;11.05;6.40;;;0.00;93.40;;;;;;5035833;28;20037;-45
2023/03/03 02:22:44;;;;;;;10.38;5.82;;;0.00;93.40;;;;;;5035381;28;20095;-47
2023/03/03 02:25:17;;;;;;;10.18;6.45;;;0.00;93.50;;;;;;5034433;28;20030;-45
2023/03/03 02:27:46;;;;;;;10.27;6.28;;;0.10;93.40;;;;;;5045936;28;20127;-46
2023/03/03 02:30:20;;;;;;;7.97;4.38;;;0.10;93.40;;;;;;5048141;28;20032;-45
2023/03/03 02:32:47;;;;;;;9.57;6.07;;;0.20;93.40;;;;;;5075561;28;20052;-45
2023/03/03 02:35:35;;;;;;;8.40;4.80;;;0.20;93.50;;;;;;5054290;28;20036;-46
2023/03/03 02:38:20;;;;;;;;;;;0.20;93.40;;;;;;5075434;28;20442;-45
2023/03/03 02:41:39;;;;;;;7.28;4.65;;;0.20;93.40;;;;;;5075567;28;20226;-45
2023/03/03 02:44:13;;;;;;;8.68;5.03;;;0.30;93.40;;;;;;4987298;28;20120;-45
2023/03/03 02:46:43;;;;;;;7.80;4.53;;;0.30;93.40;;;;;;5034212;28;20529;-45
2023/03/03 02:49:15;;;;;;;7.43;4.25;;;0.30;93.30;;;;;;5034861;28;20038;-45
2023/03/03 02:51:43;;;;;;;9.25;5.00;;;0.30;93.30;;;;;;5050609;28;20084;-45
2023/03/03 02:54:12;;;;;;;8.93;5.05;;;0.30;93.20;;;;;;5037315;28;20033;-47
2023/03/03 02:56:38;;;;;;;;;;;0.30;93.20;;;;;;5043046;28;20648;-45
2023/03/03 02:59:05;;;;;;;9.45;6.80;;;0.30;93.20;;;;;;5035057;28;20065;-45
2023/03/03 03:01:35;;;;;;;10.63;5.85;;;0.30;93.20;;;;;;5063992;28;20058;-46
2023/03/03 03:04:07;;;;;;;10.63;5.32;;;0.30;93.20;;;;;;5073160;28;20063;-45
2023/03/03 03:06:34;;;;;;;10.60;5.00;;;0.20;93.10;;;;;;5047438;28;20052;-46
2023/03/03 03:09:01;;;;;;;9.07;4.60;;;0.30;93.20;;;;;;5035080;28;20100;-46
2023/03/03 03:11:28;;;;;;;9.13;5.07;;;0.20;93.00;;;;;;5042455;28;20029;-45
2023/03/03 03:13:56;;;;;;;9.27;5.13;;;0.20;92.90;;;;;;5054365;28;20422;-46
2023/03/03 03:16:23;;;;;;;8.20;4.68;;;0.20;92.90;;;;;;5054617;28;20024;-45
2023/03/03 03:18:52;;;;;;;7.22;4.38;;;0.10;92.90;;;;;;5053623;28;20025;-45
2023/03/03 03:21:17;;;;;;;8.80;5.13;;;0.10;92.80;;;;;;5049331;28;20040;-46
2023/03/03 03:23:44;;;;;;;8.18;5.35;;;0.00;92.90;;;;;;5054567;28;20028;-46
2023/03/03 03:26:15;;;;;;;10.15;5.32;;;0.00;92.80;;;;;;5042529;28;20021;-46
2023/03/03 03:28:42;;;;;;;10.73;5.72;;;0.00;92.70;;;;;;5049492;28;20037;-45
2023/03/03 03:31:08;;;;;;;8.80;5.05;;;0.00;92.90;;;;;;5042575;28;20459;-45
2023/03/03 03:33:35;;;;;;;8.45;5.03;;;0.00;92.70;;;;;;5053305;28;20041;-46
2023/03/03 03:36:05;;;;;;;7.90;4.28;;;0.00;92.60;;;;;;5052618;28;20081;-46
2023/03/03 03:38:38;;;;;;;8.40;4.53;;;0.00;92.60;;;;;;5035773;28;20069;-46
2023/03/03 03:41:06;;;;;;;11.90;5.32;;;0.00;92.70;;;;;;5034158;28;20087;-45
2023/03/03 03:43:33;;;;;;;8.02;4.85;;;0.00;92.60;;;;;;5045965;28;20068;-45
2023/03/03 03:46:01;;;;;;;11.75;5.20;;;0.00;92.70;;;;;;5052536;28;20447;-45
2023/03/03 03:48:28;;;;;;;10.70;5.45;;;0.00;92.50;;;;;;5034126;28;20098;-46
2023/03/03 03:50:53;;;;;;;8.20;4.75;;;-3276.70;92.40;;;;;;5051611;28;20687;-46
2023/03/03 03:53:20;;;;;;;8.75;5.28;;;-3276.70;92.50;;;;;;5053924;28;20039;-46
2023/03/03 03:55:47;;;;;;;9.23;5.15;;;-3276.70;92.40;;;;;;5053792;28;20021;-45
2023/03/03 03:58:16;;;;;;;8.65;4.85;;;-3276.60;92.40;;;;;;5049928;28;20022;-45
2023/03/03 04:00:43;;;;;;;7.60;4.20;;;-3276.60;92.40;;;;;;5049755;28;20116;-45
2023/03/03 04:03:13;;;;;;;11.52;4.93;;;-3276.60;92.40;;;;;;5045898;28;20104;-47
2023/03/03 04:05:39;;;;;;;11.30;5.57;;;-3276.60;92.40;;;;;;5032739;28;20052;-47
2023/03/03 04:08:05;;;;;;;7.90;4.40;;;-3276.60;92.30;;;;;;5038078;28;20104;-46
2023/03/03 04:10:33;;;;;;;9.02;5.03;;;-3276.60;92.40;;;;;;5033759;28;20017;-46
2023/03/03 04:13:02;;;;;;;8.05;4.70;;;-3276.60;92.30;;;;;;5037038;28;20021;-45
2023/03/03 04:15:30;;;;;;;10.00;4.60;;;-3276.50;92.20;;;;;;5037061;28;20044;-45
2023/03/03 04:17:56;;;;;;;8.60;4.90;;;-3276.50;92.30;;;;;;5033382;28;20029;-46
2023/03/03 04:20:22;;;;;;;8.05;4.03;;;-3276.50;92.30;;;;;;5033491;28;20052;-45
2023/03/03 04:22:51;;;;;;;9.18;5.22;;;-3276.50;92.30;;;;;;5046602;28;20060;-47
2023/03/03 04:25:19;;;;;;;10.10;5.37;;;-3276.50;92.20;;;;;;5052160;28;20044;-48
2023/03/03 04:27:48;;;;;;;8.45;4.78;;;-3276.40;92.10;;;;;;5053317;28;20344;-46
2023/03/03 04:30:15;;;;;;;9.98;5.05;;;-3276.40;92.20;;;;;;5053155;28;20040;-48
2023/03/03 04:32:43;;;;;;;9.80;5.50;;;-3276.40;92.10;;;;;;5064547;28;20063;-46
2023/03/03 04:35:11;;;;;;;8.35;4.90;;;-3276.40;92.20;;;;;;5035256;28;20032;-46
2023/03/03 04:37:39;;;;;;;11.20;5.47;;;-3276.40;92.20;;;;;;5042488;28;20111;-45
2023/03/03 04:40:10;;;;;;;11.98;5.00;;;-3276.40;92.20;;;;;;5049869;28;20389;-45
2023/03/03 04:42:35;;;;;;;9.30;5.53;;;-3276.40;92.10;;;;;;5033221;28;20061;-46
2023/03/03 04:45:05;;;;;;;9.20;5.50;;;-3276.40;92.00;;;;;;5077650;28;20397;-45
2023/03/03 04:47:32;;;;;;;12.07;5.55;;;-3276.40;92.00;;;;;;5057056;28;20511;-46
2023/03/03 04:50:05;;;;;;;13.95;5.10;;;-3276.30;92.10;;;;;;5048694;28;20062;-46
2023/03/03 04:52:35;;;;;;;10.82;6.30;;;-3276.30;92.10;;;;;;5039876;28;20025;-48
2023/03/03 04:55:01;;;;;;;10.40;5.72;;;-3276.40;92.10;;;;;;5034676;28;20043;-47
2023/03/03 04:57:29;;;;;;;11.73;5.65;;;-3276.40;92.10;;;;;;5033181;28;20025;-45
2023/03/03 05:00:01;;;;;;;13.18;7.20;;;-3276.40;92.10;;;;;;5032657;28;20029;-45
2023/03/03 05:02:29;;;;;;;7.88;4.97;;;-3276.30;92.00;;;;;;5046535;28;20040;-50
2023/03/03 05:04:59;;;;;;;8.95;5.35;;;-3276.40;92.00;;;;;;5072924;28;20101;-46
2023/03/03 05:07:35;;;;;;;10.13;4.93;;;-3276.40;92.00;;;;;;5056600;28;20025;-45
2023/03/03 05:10:02;;;;;;;10.20;6.13;;;-3276.30;91.90;;;;;;5072901;28;20427;-49
2023/03/03 05:12:36;;;;;;;10.07;5.40;;;-3276.30;91.90;;;;;;5072727;28;20027;-45
2023/03/03 05:15:05;;;;;;;9.32;5.50;;;-3276.30;91.80;;;;;;5051741;28;20043;-48
2023/03/03 05:17:32;;;;;;;9.75;5.32;;;-3276.30;91.90;;;;;;5033054;28;20103;-45
2023/03/03 05:20:01;;;;;;;8.32;5.10;;;-3276.30;91.90;;;;;;5032684;28;20041;-45
2023/03/03 05:22:26;;;;;;;8.80;5.80;;;-3276.20;91.90;;;;;;5050325;28;20053;-46
2023/03/03 05:24:53;;;;;;;9.60;5.57;;;-3276.30;91.90;;;;;;5049233;28;20060;-48
2023/03/03 05:27:21;;;;;;;9.75;6.45;;;-3276.20;91.80;;;;;;5046413;28;20032;-46
2023/03/03 05:29:48;;;;;;;10.20;6.35;;;-3276.20;91.80;;;;;;5072279;28;20040;-49
2023/03/03 05:32:17;;;;;;;11.50;6.13;;;-3276.20;91.90;;;;;;5055508;28;20068;-48
2023/03/03 05:34:46;;;;;;;11.02;6.82;;;-3276.20;91.90;;;;;;5052595;28;20029;-48
2023/03/03 05:37:12;;;;;;;14.45;6.28;;;-3276.20;91.80;;;;;;5050339;28;20040;-46
2023/03/03 05:39:38;;;;;;;13.68;7.43;;;-3276.20;91.80;;;;;;5051090;28;20462;-46
2023/03/03 05:42:05;;;;;;;12.70;6.80;;;-3276.20;91.80;;;;;;5052506;28;20040;-45
2023/03/03 05:44:33;;;;;;;14.20;8.30;;;-3276.20;91.80;;;;;;5052367;28;20027;-47
2023/03/03 05:47:06;;;;;;;12.27;7.28;;;-3276.20;91.80;;;;;;5040846;28;20033;-50
2023/03/03 05:49:32;;;;;;;15.07;7.07;;;-3276.10;91.70;;;;;;5046222;28;20029;-46
2023/03/03 05:52:00;;;;;;;16.13;9.60;;;-3276.10;91.70;;;;;;5052671;28;20476;-46
2023/03/03 05:54:31;;;;;;;16.23;8.70;;;-3276.10;91.80;;;;;;5056148;28;20528;-48
2023/03/03 05:56:58;;;;;;;25.38;10.65;;;-3276.10;91.90;;;;;;5035716;28;20116;-47
2023/03/03 05:59:25;;;;;;;19.13;10.35;;;-3276.10;91.80;;;;;;5051990;28;20029;-46
2023/03/03 06:01:54;;;;;;;24.67;9.63;;;-3276.10;91.80;;;;;;5041089;28;20062;-45
2023/03/03 06:04:22;;;;;;;19.90;10.55;;;-3276.10;91.80;;;;;;5035928;28;20032;-45
2023/03/03 06:06:49;;;;;;;22.50;10.05;;;-3276.10;91.80;;;;;;5036131;28;20046;-46
2023/03/03 06:09:18;;;;;;;21.27;8.98;;;-3276.10;91.90;;;;;;5041259;28;20029;-45
2023/03/03 06:11:45;;;;;;;23.85;10.35;;;-3276.10;92.00;;;;;;5036349;28;20029;-46
2023/03/03 06:14:12;;;;;;;25.83;11.52;;;-3276.10;92.00;;;;;;5035507;28;20014;-45
2023/03/03 06:16:40;;;;;;;23.17;10.85;;;-3276.10;92.00;;;;;;5038257;28;20025;-45
2023/03/03 06:19:08;;;;;;;20.48;9.60;;;-3276.10;92.10;;;;;;5071499;28;20059;-46
2023/03/03 06:21:35;;;;;;;23.55;9.95;;;-3276.10;92.00;;;;;;5072155;28;20021;-45
2023/03/03 06:24:03;;;;;;;24.20;9.70;;;-3276.10;92.00;;;;;;5064601;28;20076;-45
2023/03/03 06:26:30;;;;;;;19.58;8.73;;;-3276.10;92.10;;;;;;5053710;28;20438;-45
2023/03/03 06:28:56;;;;;;;30.73;9.27;;;-3276.00;92.10;;;;;;5055151;28;20052;-46
2023/03/03 06:31:23;;;;;;;16.48;9.10;;;-3276.00;92.10;;;;;;5071860;28;20024;-46
2023/03/03 06:33:51;;;;;;;22.92;9.75;;;-3276.10;92.10;;;;;;5048834;28;20030;-45
2023/03/03 06:36:20;;;;;;;17.95;8.80;;;-3276.00;92.10;;;;;;5035543;28;20041;-46
2023/03/03 06:38:48;;;;;;;16.42;8.95;;;-3276.00;92.10;;;;;;5060116;28;20049;-45
2023/03/03 06:41:15;;;;;;;16.13;8.27;;;-3276.10;92.20;;;;;;5039870;28;20475;-46
2023/03/03 06:43:45;;;;;;;19.75;7.50;;;-3276.10;92.20;;;;;;5035334;28;20073;-45
2023/03/03 06:46:12;;;;;;;14.48;8.05;;;-3276.10;92.10;;;;;;5035114;28;20108;-45
2023/03/03 06:48:39;;;;;;;13.75;7.30;;;-3276.10;92.00;;;;;;5068872;28;20021;-45
2023/03/03 06:51:33;;;;;;;13.68;7.50;;;-3276.10;92.00;;;;;;5075280;28;20029;-45
2023/03/03 06:54:10;;;;;;;13.73;7.72;;;-3276.10;92.10;;;;;;5062212;28;20041;-46
2023/03/03 06:56:37;;;;;;;13.00;7.15;;;-3276.10;92.00;;;;;;5037096;28;20037;-45
2023/03/03 06:59:19;;;;;;;11.13;6.72;;;-3276.20;92.00;;;;;;5054972;28;20024;-46
2023/03/03 07:01:49;;;;;;;12.20;7.15;;;-3276.20;92.00;;;;;;5070649;28;20383;-46
2023/03/03 07:04:30;;;;;;;14.73;7.38;;;-3276.20;92.00;;;;;;5033606;28;20129;-45
2023/03/03 07:07:12;;;;;;;11.68;6.90;;;-3276.30;92.00;;;;;;5036860;28;20068;-45
2023/03/03 07:09:39;;;;;;;11.65;6.57;;;-3276.30;91.90;;;;;;5038385;28;20022;-45
2023/03/03 07:12:12;;;;;;;14.80;7.43;;;-3276.30;91.90;;;;;;5035074;28;20049;-47
2023/03/03 07:14:46;;;;;;;11.35;6.70;;;-3276.40;91.90;;;;;;5050298;28;20414;-45
2023/03/03 07:17:22;;;;;;;15.80;8.30;;;-3276.50;91.90;;;;;;5050170;28;20505;-45
2023/03/03 07:19:51;;;;;;;16.02;6.75;;;-3276.50;91.80;;;;;;5063938;28;20119;-46
2023/03/03 07:22:37;;;;;;;13.85;7.28;;;-3276.50;91.80;;;;;;5065973;28;20524;-49
2023/03/03 07:25:23;;;;;;;20.13;8.70;;;-3276.60;91.90;;;;;;5043342;28;20044;-48
2023/03/03 07:27:54;;;;;;;14.68;7.78;;;-3276.70;91.80;;;;;;5034422;28;20025;-44
2023/03/03 07:30:26;;;;;;;12.48;7.32;;;-3276.70;91.90;;;;;;5034742;28;20044;-46
2023/03/03 07:32:56;;;;;;;16.67;7.95;;;0.00;91.80;;;;;;5048220;28;20056;-45
2023/03/03 07:35:42;;;;;;;11.45;6.70;;;0.00;91.70;;;;;;5052747;28;20024;-44
2023/03/03 07:38:23;;;;;;;16.52;8.57;;;0.20;91.80;;;;;;5041609;28;20399;-44
2023/03/03 07:40:54;;;;;;;11.75;7.15;;;0.40;91.60;;;;;;5063230;28;20040;-43
2023/03/03 07:43:53;;;;;;;12.75;7.18;;;0.40;91.50;;;;;;5050274;28;20450;-44
2023/03/03 07:46:29;;;;;;;15.32;7.20;;;0.60;91.70;;;;;;5052409;28;20469;-43
2023/03/03 07:48:59;;;;;;;11.73;6.32;;;0.80;91.70;;;;;;5046762;28;20037;-43
2023/03/03 07:51:38;;;;;;;10.10;6.22;;;0.90;91.50;;;;;;5052492;28;20021;-44
2023/03/03 07:54:36;;;;;;;11.65;6.10;;;1.00;91.60;;;;;;5018875;28;20041;-46
2023/03/03 07:57:25;;;;;;;13.90;5.97;;;1.30;91.40;;;;;;5053453;28;20544;-44
2023/03/03 08:00:22;;;;;;;12.30;5.78;;;1.50;91.20;;;;;;5062877;28;20028;-44
2023/03/03 08:03:21;;;;;;;10.35;5.82;;;1.60;91.20;;;;;;5003087;28;20053;-46
2023/03/03 08:05:52;;;;;;;14.18;6.75;;;1.80;90.90;;;;;;5013060;28;20076;-44
2023/03/03 08:08:46;;;;;;;12.38;8.15;;;1.90;90.90;;;;;;5017522;28;20339;-44
2023/03/03 08:11:15;;;;;;;11.90;8.38;;;2.00;91.00;;;;;;5032941;28;20101;-44
2023/03/03 08:13:44;;;;;;;9.38;6.07;;;2.30;91.20;;;;;;5015281;28;20394;-43
2023/03/03 08:16:13;;;;;;;8.90;5.68;;;2.50;91.00;;;;;;5012363;28;20030;-43
2023/03/03 08:18:47;;;;;;;8.77;4.82;;;2.60;90.70;;;;;;5027892;28;20029;-45
2023/03/03 08:21:33;;;;;;;7.90;5.45;;;2.60;90.40;;;;;;5051862;28;20056;-43
2023/03/03 08:24:04;;;;;;;8.27;4.93;;;2.70;90.50;;;;;;5040716;28;20044;-44
2023/03/03 08:26:30;;;;;;;10.43;4.97;;;2.70;90.10;;;;;;5013527;28;20022;-43
2023/03/03 08:28:56;;;;;;;6.35;4.20;;;2.80;90.30;;;;;;5013227;28;20030;-43
2023/03/03 08:31:23;;;;;;;9.15;5.75;;;2.80;90.40;;;;;;5037355;28;20048;-44
2023/03/03 08:33:50;;;;;;;8.05;4.72;;;2.90;90.40;;;;;;5030878;28;20026;-43
2023/03/03 08:36:17;;;;;;;6.63;4.32;;;3.00;90.50;;;;;;5030556;28;20112;-43
2023/03/03 08:38:45;;;;;;;7.63;4.57;;;3.00;90.70;;;;;;5046406;28;20044;-43
2023/03/03 08:41:13;;;;;;;7.45;5.00;;;3.10;90.70;;;;;;5040001;28;20323;-42
2023/03/03 08:43:41;;;;;;;8.65;5.55;;;3.30;91.00;;;;;;5051199;28;20351;-45
2023/03/03 08:46:10;;;;;;;8.25;5.00;;;3.40;91.00;;;;;;5043991;28;20025;-44
2023/03/03 08:48:39;;;;;;;8.35;5.95;;;3.50;91.20;;;;;;5033078;28;20057;-42
2023/03/03 08:51:07;;;;;;;7.70;5.18;;;3.70;91.30;;;;;;5032169;28;20367;-44
2023/03/03 08:53:37;;;;;;;8.07;5.05;;;3.90;91.30;;;;;;5030915;28;20033;-43
2023/03/03 08:56:05;;;;;;;6.10;4.45;;;3.90;91.20;;;;;;5035640;28;20458;-42
2023/03/03 08:58:33;;;;;;;9.25;5.32;;;4.10;91.30;;;;;;5019281;28;20080;-42
2023/03/03 09:01:02;;;;;;;8.10;3.97;;;4.20;91.40;;;;;;5039305;28;20026;-42
2023/03/03 09:03:29;;;;;;;9.77;4.55;;;4.40;91.60;;;;;;5047687;28;20045;-42
2023/03/03 09:05:56;;;;;;;7.72;4.32;;;4.60;91.60;;;;;;5044626;28;20045;-43
2023/03/03 09:08:24;;;;;;;7.63;4.60;;;4.70;91.40;;;;;;5052432;28;20924;-42
2023/03/03 09:10:51;;;;;;;8.98;4.30;;;4.90;91.60;;;;;;5052617;28;20033;-42
2023/03/03 09:13:18;;;;;;;7.53;4.10;;;4.90;91.20;;;;;;5039239;28;20105;-43
2023/03/03 09:15:45;;;;;;;8.43;3.70;;;4.90;90.80;;;;;;5066245;28;20037;-43
2023/03/03 09:18:33;;;;;;;6.65;4.05;;;4.90;91.00;;;;;;5070227;28;20060;-43
2023/03/03 09:21:00;;;;;;;8.57;4.43;;;5.00;90.80;;;;;;5031868;28;20363;-43
2023/03/03 09:23:36;;;;;;;7.25;3.80;;;5.00;90.90;;;;;;5035427;28;20034;-43
2023/03/03 09:26:25;;;;;;;6.22;4.35;;;5.10;91.10;;;;;;5056918;28;20339;-43
2023/03/03 09:29:13;;;;;;;6.20;4.15;;;5.30;91.20;;;;;;5046277;28;20380;-43
2023/03/03 09:31:50;;;;;;;6.30;4.18;;;5.40;91.20;;;;;;5049731;28;20022;-43
2023/03/03 09:34:34;;;;;;;11.60;5.47;;;5.50;91.30;;;;;;5047440;28;20071;-44
2023/03/03 09:37:32;;;;;;;7.93;5.13;;;5.50;90.90;;;;;;5056600;28;20021;-44
2023/03/03 09:39:59;;;;;;;6.53;4.50;;;5.60;90.90;;;;;;5051201;28;20339;-43
2023/03/03 09:42:46;;;;;;;8.35;5.28;;;5.70;91.20;;;;;;5055610;28;20104;-43
2023/03/03 09:45:54;;;;;;;8.93;4.85;;;5.80;90.90;;;;;;5061852;28;20663;-43
2023/03/03 09:48:43;;;;;;;8.90;4.53;;;5.80;90.60;;;;;;5068296;28;20503;-45
2023/03/03 09:51:43;;;;;;;8.48;5.28;;;5.90;90.60;;;;;;5050298;28;20040;-44
2023/03/03 09:54:27;;;;;;;;;;;5.90;90.20;;;;;;5055172;28;20331;-43
2023/03/03 09:57:05;;;;;;;11.27;5.10;;;5.90;90.40;;;;;;5056205;28;19988;-44
2023/03/03 10:00:06;;;;;;;7.60;3.78;;;6.00;90.20;;;;;;5040743;28;20027;-44
2023/03/03 10:03:01;;;;;;;6.80;4.28;;;6.10;90.50;;;;;;5063341;28;20057;-44
2023/03/03 10:05:51;;;;;;;8.75;3.70;;;6.20;90.40;;;;;;5075941;28;20020;-43
2023/03/03 10:08:28;;;;;;;6.82;4.60;;;6.20;89.90;;;;;;5035681;28;20040;-44
2023/03/03 10:11:15;;;;;;;6.88;3.60;;;6.30;89.60;;;;;;5052797;28;20029;-46
2023/03/03 10:13:49;;;;;;;8.13;3.45;;;6.40;89.30;;;;;;5054936;28;20069;-44
2023/03/03 10:16:44;;;;;;;6.38;4.00;;;6.40;89.30;;;;;;5055159;28;20028;-44
2023/03/03 10:19:36;;;;;;;8.13;4.07;;;6.50;89.10;;;;;;5065327;28;20047;-44
2023/03/03 10:22:23;;;;;;;12.48;3.80;;;6.70;88.90;;;;;;5075784;28;20441;-44
2023/03/03 10:24:58;;;;;;;6.88;3.42;;;6.70;88.30;;;;;;5041920;28;20040;-44
2023/03/03 10:28:01;;;;;;;5.18;3.17;;;6.80;88.20;;;;;;5055486;28;20151;-46
2023/03/03 10:31:09;;;;;;;8.00;3.45;;;6.80;87.50;;;;;;5035660;28;20021;-45
2023/03/03 10:34:03;;;;;;;5.78;3.60;;;6.90;87.50;;;;;;5035309;28;20063;-45
2023/03/03 10:36:43;;;;;;;5.35;3.03;;;6.90;87.30;;;;;;5050903;28;20044;-45
2023/03/03 10:39:27;;;;;;;;;;;6.90;86.20;;;;;;5035574;28;20055;-47
2023/03/03 10:42:21;;;;;;;7.50;3.00;;;6.80;85.90;;;;;;5035254;28;19905;-47
2023/03/03 10:45:24;;;;;;;6.85;3.05;;;6.90;85.90;;;;;;5074180;28;20040;-47
2023/03/03 10:48:14;;;;;;;5.85;2.75;;;6.90;85.30;;;;;;5072986;28;20104;-44
2023/03/03 10:51:24;;;;;;;7.63;3.13;;;7.00;85.30;;;;;;5035479;28;20075;-45
2023/03/03 10:54:43;;;;;;;4.20;2.05;;;7.20;85.90;;;;;;5035058;28;20029;-44
2023/03/03 10:57:30;;;;;;;6.30;2.40;;;7.00;84.20;;;;;;5035148;28;20565;-45
2023/03/03 11:00:20;;;;;;;6.53;2.28;;;7.10;84.30;;;;;;5040705;28;20427;-45
2023/03/03 11:03:11;;;;;;;8.57;2.78;;;7.10;84.10;;;;;;5034714;28;20068;-45
2023/03/03 11:05:46;;;;;;;6.60;1.50;;;7.00;82.90;;;;;;5065293;28;20519;-45
2023/03/03 11:08:57;;;;;;;1.95;0.90;;;6.90;81.30;;;;;;5037282;28;20041;-44
2023/03/03 11:11:43;;;;;;;6.40;1.13;;;7.00;80.60;;;;;;5025866;28;20037;-45
2023/03/03 11:14:36;;;;;;;12.32;4.22;;;7.00;78.30;;;;;;5070718;28;20025;-48
2023/03/03 11:17:13;;;;;;;6.93;1.30;;;6.90;78.10;;;;;;5055539;28;20358;-45
2023/03/03 11:20:03;;;;;;;7.35;1.02;;;6.90;78.10;;;;;;5045115;28;20025;-45
2023/03/03 11:22:47;;;;;;;;;;;7.20;77.90;;;;;;5053749;28;20025;-46
2023/03/03 11:25:47;;;;;;;3.60;1.10;;;7.80;77.70;;;;;;5068966;28;19909;-46
2023/03/03 11:28:34;;;;;;;3.75;1.45;;;7.90;75.20;;;;;;5066227;28;20437;-48
2023/03/03 11:31:31;;;;;;;7.88;1.67;;;8.10;74.80;;;;;;5054895;28;20033;-45
2023/03/03 11:34:25;;;;;;;3.85;1.13;;;8.40;74.60;;;;;;5041496;28;20371;-45
2023/03/03 11:37:19;;;;;;;5.43;1.73;;;8.40;72.50;;;;;;5041769;28;20028;-45
2023/03/03 11:39:46;;;;;;;7.45;1.13;;;8.30;71.90;;;;;;5052372;28;20106;-46
2023/03/03 11:42:21;;;;;;;5.05;1.77;;;8.40;72.80;;;;;;5053945;28;20094;-46
2023/03/03 11:44:52;;;;;;;6.70;2.47;;;8.40;71.70;;;;;;5040676;28;20088;-45
2023/03/03 11:47:43;;;;;;;9.43;1.90;;;8.20;71.80;;;;;;5044368;28;20048;-45
2023/03/03 11:50:23;;;;;;;7.03;1.77;;;8.00;72.60;;;;;;5057746;28;20361;-45
2023/03/03 11:53:31;;;;;;;8.38;3.65;;;8.00;72.60;;;;;;5073916;28;20086;-46
2023/03/03 11:56:12;;;;;;;9.07;2.22;;;7.90;72.60;;;;;;5052705;28;20401;-45
2023/03/03 11:59:15;;;;;;;7.90;1.77;;;7.90;73.20;;;;;;5052193;28;20053;-45
2023/03/03 12:02:15;;;;;;;3.65;1.27;;;8.10;73.50;;;;;;5043542;28;20053;-46
2023/03/03 12:05:00;;;;;;;12.07;1.55;;;8.10;73.60;;;;;;5060205;28;20036;-45
2023/03/03 12:07:44;;;;;;;10.25;2.35;;;7.90;72.60;;;;;;5074073;28;20048;-45
2023/03/03 12:10:29;;;;;;;9.63;3.20;;;7.90;73.00;;;;;;5060494;28;20091;-47
2023/03/03 12:13:23;;;;;;;5.80;1.70;;;7.80;74.10;;;;;;5039582;28;20120;-46
2023/03/03 12:16:27;;;;;;;5.60;1.40;;;7.80;74.10;;;;;;5036227;28;20038;-45
2023/03/03 12:19:12;;;;;;;8.90;1.55;;;7.80;74.20;;;;;;5052674;28;20048;-46
2023/03/03 12:22:12;;;;;;;11.10;1.38;;;7.70;73.20;;;;;;5051691;28;20029;-44
2023/03/03 12:24:46;;;;;;;4.55;1.48;;;7.70;74.30;;;;;;5063282;28;20041;-47
2023/03/03 12:27:50;;;;;;;6.03;1.40;;;7.50;74.50;;;;;;5053539;28;20373;-45
2023/03/03 12:30:54;;;;;;;8.77;1.80;;;7.40;74.40;;;;;;5051318;28;20112;-45
2023/03/03 12:33:42;;;;;;;7.97;1.60;;;7.40;75.20;;;;;;5047402;28;20815;-45
2023/03/03 12:36:36;;;;;;;8.82;1.98;;;7.50;74.30;;;;;;5051697;28;20112;-44
2023/03/03 12:39:38;;;;;;;11.15;2.03;;;7.60;74.20;;;;;;5039338;28;20021;-45
2023/03/03 12:42:40;;;;;;;9.77;2.72;;;7.70;73.80;;;;;;5029350;28;20029;-45
2023/03/03 12:45:25;;;;;;;10.02;1.92;;;7.80;74.90;;;;;;5071039;28;20024;-45
2023/03/03 12:48:32;;;;;;;16.02;2.42;;;7.60;74.60;;;;;;5052574;28;20029;-45
2023/03/03 12:51:16;;;;;;;8.50;2.53;;;7.60;75.10;;;;;;5052317;28;20052;-45
2023/03/03 12:54:00;;;;;;;6.45;1.70;;;7.60;75.30;;;;;;5051529;28;20351;-45
2023/03/03 12:56:56;;;;;;;8.75;2.45;;;7.60;74.50;;;;;;5068392;28;20033;-45
2023/03/03 13:00:09;;;;;;;6.97;1.92;;;7.70;75.20;;;;;;5052143;28;20028;-45
2023/03/03 13:02:57;;;;;;;9.70;1.90;;;7.50;74.00;;;;;;5035177;28;20056;-46
2023/03/03 13:05:44;;;;;;;11.93;2.65;;;7.40;73.60;;;;;;5083899;28;20029;-46
2023/03/03 13:08:32;;;;;;;15.73;2.40;;;7.20;74.30;;;;;;5072868;28;20035;-45
2023/03/03 13:11:27;;;;;;;13.70;2.58;;;7.20;74.80;;;;;;5052571;28;20033;-45
2023/03/03 13:14:10;;;;;;;10.02;2.00;;;7.40;74.70;;;;;;5040519;28;20032;-45
2023/03/03 13:17:13;;;;;;;7.65;2.13;;;7.60;74.30;;;;;;5070898;28;20028;-45
2023/03/03 13:19:50;;;;;;;13.70;2.05;;;7.60;74.30;;;;;;5025006;28;20095;-45
2023/03/03 13:22:43;;;;;;;15.27;3.03;;;7.50;74.60;;;;;;5031607;28;20029;-45
2023/03/03 13:25:53;;;;;;;9.55;2.22;;;7.70;75.30;;;;;;5048407;28;20025;-46
2023/03/03 13:28:41;;;;;;;13.75;2.35;;;7.90;73.50;;;;;;5052411;28;20052;-45
2023/03/03 13:31:38;;;;;;;9.27;2.53;;;7.90;73.30;;;;;;5035935;28;20041;-45